Time;durP1;ratioP1;P1;durP2;ratioP2;P2;SDS_P1;SDS_P2;PMS_P1;PMS_P2;Temp;Humidity;BMP_temperature;BMP_pressure;BME280_temperature;BME280_humidity;BME280_pressure;Samples;Min_cycle;Max_cycle;Signal;HPM_P1;HPM_P2
2022/11/17 00:01:45;;;;;;;;;;;;;;;;;;5063363;28;19909;-68
2022/11/17 00:04:10;;;;;;;;;;;;;;;;;;5074318;28;19913;-67
2022/11/17 00:06:35;;;;;;;;;;;;;;;;;;5074700;28;20020;-68
2022/11/17 00:09:01;;;;;;;;;;;;;;;;;;5074897;28;20321;-66
2022/11/17 00:14:31;;;;;;;;;;;;;;;;;;5074866;28;19959;-65
2022/11/17 00:16:55;;;;;;;;;;;;;;;;;;5074982;28;20370;-68
2022/11/17 00:22:04;;;;;;;;;;;;;;;;;;5074574;28;19919;-68
2022/11/17 00:24:30;;;;;;;;;;;;;;;;;;5074512;28;20007;-68
2022/11/17 00:27:01;;;;;;;;;;;;;;;;;;5074606;28;20337;-69
2022/11/17 00:29:27;;;;;;;;;;;;;;;;;;5074756;28;19919;-66
2022/11/17 00:34:36;;;;;;;;;;;;;;;;;;5074456;28;20015;-68
2022/11/17 00:37:01;;;;;;;;;;;;;;;;;;5073967;28;20011;-65
2022/11/17 00:39:27;;;;;;;;;;;;;;;;;;5074169;28;19962;-69
2022/11/17 00:41:52;;;;;;;;;;;;;;;;;;5073756;28;19926;-66
2022/11/17 00:44:18;;;;;;;;;;;;;;;;;;5072817;28;20299;-65
2022/11/17 00:46:43;;;;;;;;;;;;;;;;;;5072885;28;19936;-65
2022/11/17 00:49:09;;;;;;;;;;;;;;;;;;5072700;28;19916;-65
2022/11/17 00:51:35;;;;;;;;;;;;;;;;;;5072472;28;19923;-66
2022/11/17 00:54:01;;;;;;;;;;;;;;;;;;5072697;28;19912;-65
2022/11/17 00:56:26;;;;;;;;;;;;;;;;;;5072619;28;20283;-66
2022/11/17 00:58:52;;;;;;;;;;;;;;;;;;5072689;28;19913;-65
2022/11/17 01:01:17;;;;;;;;;;;;;;;;;;5072472;28;19920;-64
2022/11/17 01:03:43;;;;;;;;;;;;;;;;;;5072654;28;19919;-65
2022/11/17 01:06:10;;;;;;;;;;;;;;;;;;5070980;28;19919;-64
2022/11/17 01:08:36;;;;;;;;;;;;;;;;;;5072397;28;19923;-65
2022/11/17 01:11:09;;;;;;;;;;;;;;;;;;5072282;28;20316;-65
2022/11/17 01:13:35;;;;;;;;;;;;;;;;;;5072513;28;20012;-65
2022/11/17 01:16:02;;;;;;;;;;;;;;;;;;5072808;28;19920;-65
2022/11/17 01:18:27;;;;;;;;;;;;;;;;;;5072271;28;19959;-65
2022/11/17 01:20:53;;;;;;;;;;;;;;;;;;5072725;28;19944;-65
2022/11/17 01:23:18;;;;;;;;;;;;;;;;;;5072627;28;20371;-66
2022/11/17 01:25:43;;;;;;;;;;;;;;;;;;5072731;28;19916;-65
2022/11/17 01:28:09;;;;;;;;;;;;;;;;;;5072538;28;20001;-65
2022/11/17 01:30:34;;;;;;;;;;;;;;;;;;5072623;28;19917;-65
2022/11/17 01:32:59;;;;;;;;;;;;;;;;;;5072041;28;19935;-65
2022/11/17 01:35:25;;;;;;;;;;;;;;;;;;5072504;28;20039;-68
2022/11/17 01:37:51;;;;;;;;;;;;;;;;;;5072548;28;20347;-68
2022/11/17 01:40:16;;;;;;;;;;;;;;;;;;5072863;28;20337;-68
2022/11/17 01:42:42;;;;;;;;;;;;;;;;;;5072787;28;19920;-65
2022/11/17 01:45:20;;;;;;;;;;;;;;;;;;5073151;28;20287;-68
2022/11/17 01:47:48;;;;;;;;;;;;;;;;;;5072737;28;19943;-65
2022/11/17 01:50:20;;;;;;;;;;;;;;;;;;5072409;28;20422;-68
2022/11/17 01:52:47;;;;;;;;;;;;;;;;;;5072338;28;19919;-68
2022/11/17 01:55:13;;;;;;;;;;;;;;;;;;5072273;28;19916;-68
2022/11/17 01:57:44;;;;;;;;;;;;;;;;;;5072310;28;20565;-68
2022/11/17 02:00:09;;;;;;;;;;;;;;;;;;5072205;28;20011;-67
2022/11/17 02:02:36;;;;;;;;;;;;;;;;;;5070869;28;20396;-68
2022/11/17 02:05:05;;;;;;;;;;;;;;;;;;5072712;28;19912;-68
2022/11/17 02:07:32;;;;;;;;;;;;;;;;;;5072722;28;19912;-68
2022/11/17 02:09:58;;;;;;;;;;;;;;;;;;5072422;28;19982;-68
2022/11/17 02:12:25;;;;;;;;;;;;;;;;;;5072371;28;20310;-67
2022/11/17 02:14:51;;;;;;;;;;;;;;;;;;5072142;28;19917;-66
2022/11/17 02:17:17;;;;;;;;;;;;;;;;;;5071739;28;20394;-67
2022/11/17 02:19:44;;;;;;;;;;;;;;;;;;5071280;28;19952;-68
2022/11/17 02:22:15;;;;;;;;;;;;;;;;;;5072587;28;19916;-67
2022/11/17 02:24:57;;;;;;;;;;;;;;;;;;5072636;28;19919;-65
2022/11/17 02:27:26;;;;;;;;;;;;;;;;;;5072832;28;20367;-68
2022/11/17 02:29:54;;;;;;;;;;;;;;;;;;5076568;28;19959;-67
2022/11/17 02:32:22;;;;;;;;;;;;;;;;;;5076071;28;19923;-68
2022/11/17 02:34:52;;;;;;;;;;;;;;;;;;5076608;28;20433;-66
2022/11/17 02:37:21;;;;;;;;;;;;;;;;;;5076386;28;20432;-68
2022/11/17 02:39:50;;;;;;;;;;;;;;;;;;5075748;28;19917;-69
2022/11/17 02:45:23;;;;;;;;;;;;;;;;;;5075674;28;19966;-68
2022/11/17 02:47:49;;;;;;;;;;;;;;;;;;5075478;28;20355;-65
2022/11/17 02:50:16;;;;;;;;;;;;;;;;;;5076204;28;19912;-68
2022/11/17 02:52:41;;;;;;;;;;;;;;;;;;5075955;28;19915;-64
2022/11/17 02:55:08;;;;;;;;;;;;;;;;;;5075662;28;19916;-63
2022/11/17 02:57:34;;;;;;;;;;;;;;;;;;5075399;28;19990;-64
2022/11/17 03:00:11;;;;;;;;;;;;;;;;;;5075105;28;19921;-64
2022/11/17 03:02:54;;;;;;;;;;;;;;;;;;5075316;28;20291;-64
2022/11/17 03:05:35;;;;;;;;;;;;;;;;;;5075829;28;19912;-64
2022/11/17 03:08:18;;;;;;;;;;;;;;;;;;5075343;28;19916;-64
2022/11/17 03:10:52;;;;;;;;;;;;;;;;;;5075640;28;19919;-64
2022/11/17 03:13:44;;;;;;;;;;;;;;;;;;5075762;28;19916;-63
2022/11/17 03:16:29;;;;;;;;;;;;;;;;;;5073194;28;19916;-64
2022/11/17 03:19:07;;;;;;;;;;;;;;;;;;5075628;28;19935;-65
2022/11/17 03:21:40;;;;;;;;;;;;;;;;;;5075599;28;19912;-63
2022/11/17 03:24:14;;;;;;;;;;;;;;;;;;5075597;28;20286;-63
2022/11/17 03:26:43;;;;;;;;;;;;;;;;;;5074913;28;19912;-64
2022/11/17 03:29:11;;;;;;;;;;;;;;;;;;5074520;28;19961;-64
2022/11/17 03:31:36;;;;;;;;;;;;;;;;;;5074633;28;19966;-64
2022/11/17 03:34:04;;;;;;;;;;;;;;;;;;5075294;28;19916;-64
2022/11/17 03:36:32;;;;;;;;;;;;;;;;;;5075403;28;20391;-64
2022/11/17 03:39:04;;;;;;;;;;;;;;;;;;5074291;28;19955;-65
2022/11/17 03:41:32;;;;;;;;;;;;;;;;;;5074947;28;19920;-68
2022/11/17 03:43:59;;;;;;;;;;;;;;;;;;5073128;28;19920;-66
2022/11/17 03:46:25;;;;;;;;;;;;;;;;;;5074515;28;19919;-67
2022/11/17 03:49:11;;;;;;;;;;;;;;;;;;5073886;28;20367;-67
2022/11/17 03:51:37;;;;;;;;;;;;;;;;;;5032194;28;20006;-65
2022/11/17 03:54:02;;;;;;;;;;;;;;;;;;5032943;28;19914;-67
2022/11/17 03:56:44;;;;;;;;;;;;;;;;;;5032985;28;19913;-64
2022/11/17 03:59:22;;;;;;;;;;;;;;;;;;5032593;28;19975;-64
2022/11/17 04:01:47;;;;;;;;;;;;;;;;;;5032805;28;19913;-64
2022/11/17 04:04:13;;;;;;;;;;;;;;;;;;5032764;28;19920;-64
2022/11/17 04:06:39;;;;;;;;;;;;;;;;;;5032470;28;20296;-64
2022/11/17 04:09:04;;;;;;;;;;;;;;;;;;5032529;28;19913;-65
2022/11/17 04:16:57;;;;;;;;;;;;;;;;;;5031787;28;20075;-68
2022/11/17 04:19:22;;;;;;;;;;;;;;;;;;5031743;28;20003;-67
2022/11/17 04:21:47;;;;;;;;;;;;;;;;;;5031781;28;20022;-67
2022/11/17 04:24:13;;;;;;;;;;;;;;;;;;5032214;28;19920;-68
2022/11/17 04:29:22;;;;;;;;;;;;;;;;;;5065120;28;19920;-67
2022/11/17 04:31:47;;;;;;;;;;;;;;;;;;5074241;28;19924;-66
2022/11/17 04:34:13;;;;;;;;;;;;;;;;;;5074138;28;19966;-68
2022/11/17 04:36:42;;;;;;;;;;;;;;;;;;5072879;28;19912;-64
2022/11/17 04:39:08;;;;;;;;;;;;;;;;;;5073988;28;19912;-67
2022/11/17 04:44:18;;;;;;;;;;;;;;;;;;5073558;28;19978;-67
2022/11/17 04:46:44;;;;;;;;;;;;;;;;;;5073187;28;20000;-66
2022/11/17 04:49:10;;;;;;;;;;;;;;;;;;5073007;28;19923;-67
2022/11/17 04:51:35;;;;;;;;;;;;;;;;;;5073518;28;20403;-66
2022/11/17 04:54:01;;;;;;;;;;;;;;;;;;5073886;28;19912;-68
2022/11/17 04:56:27;;;;;;;;;;;;;;;;;;5073439;28;19920;-63
2022/11/17 04:58:53;;;;;;;;;;;;;;;;;;5073670;28;19935;-67
2022/11/17 05:01:19;;;;;;;;;;;;;;;;;;5073632;28;20375;-64
2022/11/17 05:03:55;;;;;;;;;;;;;;;;;;5073658;28;19913;-64
2022/11/17 05:06:20;;;;;;;;;;;;;;;;;;5073551;28;19935;-63
2022/11/17 05:08:46;;;;;;;;;;;;;;;;;;5073549;28;20383;-64
2022/11/17 05:13:56;;;;;;;;;;;;;;;;;;5073122;28;20413;-63
2022/11/17 05:19:07;;;;;;;;;;;;;;;;;;5072904;28;20378;-64
2022/11/17 05:21:32;;;;;;;;;;;;;;;;;;5073134;28;19919;-63
2022/11/17 05:23:57;;;;;;;;;;;;;;;;;;5073383;28;19913;-64
2022/11/17 05:26:24;;;;;;;;;;;;;;;;;;5073051;28;19912;-64
2022/11/17 05:28:50;;;;;;;;;;;;;;;;;;5073085;28;19920;-67
2022/11/17 05:31:15;;;;;;;;;;;;;;;;;;5073044;28;19912;-67
2022/11/17 05:33:40;;;;;;;;;;;;;;;;;;5073057;28;19912;-67
2022/11/17 05:36:06;;;;;;;;;;;;;;;;;;5073198;28;19916;-67
2022/11/17 05:38:32;;;;;;;;;;;;;;;;;;5072775;28;19913;-64
2022/11/17 05:40:57;;;;;;;;;;;;;;;;;;5072102;28;19916;-64
2022/11/17 05:43:22;;;;;;;;;;;;;;;;;;5072348;28;19916;-64
2022/11/17 05:45:48;;;;;;;;;;;;;;;;;;5072367;28;19916;-64
2022/11/17 05:48:13;;;;;;;;;;;;;;;;;;5072064;28;19916;-66
2022/11/17 05:50:39;;;;;;;;;;;;;;;;;;5072829;28;20311;-65
2022/11/17 05:53:04;;;;;;;;;;;;;;;;;;5072778;28;20375;-67
2022/11/17 05:55:29;;;;;;;;;;;;;;;;;;5072779;28;19922;-67
2022/11/17 05:57:57;;;;;;;;;;;;;;;;;;5072847;28;19912;-66
2022/11/17 06:00:22;;;;;;;;;;;;;;;;;;5072440;28;20205;-67
2022/11/17 06:02:59;;;;;;;;;;;;;;;;;;5072024;28;19915;-67
2022/11/17 06:05:24;;;;;;;;;;;;;;;;;;5072667;28;19935;-64
2022/11/17 06:07:50;;;;;;;;;;;;;;;;;;5072755;28;20344;-65
2022/11/17 06:10:16;;;;;;;;;;;;;;;;;;5071032;28;19912;-65
2022/11/17 06:12:41;;;;;;;;;;;;;;;;;;5071924;28;19909;-64
2022/11/17 06:15:07;;;;;;;;;;;;;;;;;;5071931;28;19923;-64
2022/11/17 06:17:42;;;;;;;;;;;;;;;;;;5071904;28;19912;-65
2022/11/17 06:20:11;;;;;;;;;;;;;;;;;;5072126;28;19966;-65
2022/11/17 06:22:36;;;;;;;;;;;;;;;;;;5072640;28;20003;-64
2022/11/17 06:25:02;;;;;;;;;;;;;;;;;;5072299;28;19912;-67
2022/11/17 06:27:29;;;;;;;;;;;;;;;;;;5072456;28;19913;-64
2022/11/17 06:29:55;;;;;;;;;;;;;;;;;;5072282;28;19966;-65
2022/11/17 06:32:21;;;;;;;;;;;;;;;;;;5072149;28;19920;-66
2022/11/17 06:34:47;;;;;;;;;;;;;;;;;;5072284;28;20422;-65
2022/11/17 06:37:12;;;;;;;;;;;;;;;;;;5072325;28;20386;-64
2022/11/17 06:39:38;;;;;;;;;;;;;;;;;;5071542;28;19917;-64
2022/11/17 06:42:03;;;;;;;;;;;;;;;;;;5071971;28;19919;-64
2022/11/17 06:44:29;;;;;;;;;;;;;;;;;;5071716;28;20431;-65
2022/11/17 06:46:54;;;;;;;;;;;;;;;;;;5071631;28;20330;-64
2022/11/17 06:49:20;;;;;;;;;;;;;;;;;;5070677;28;20269;-64
2022/11/17 06:51:45;;;;;;;;;;;;;;;;;;5072326;28;19924;-67
2022/11/17 06:54:11;;;;;;;;;;;;;;;;;;5072116;28;19912;-68
2022/11/17 06:56:36;;;;;;;;;;;;;;;;;;5071872;28;19969;-67
2022/11/17 06:59:02;;;;;;;;;;;;;;;;;;5071888;28;19919;-67
2022/11/17 07:01:27;;;;;;;;;;;;;;;;;;5071636;28;19923;-69
2022/11/17 07:03:52;;;;;;;;;;;;;;;;;;5071348;28;19978;-69
2022/11/17 07:06:18;;;;;;;;;;;;;;;;;;5071653;28;19943;-68
2022/11/17 07:08:44;;;;;;;;;;;;;;;;;;5071826;28;19912;-64
2022/11/17 07:11:10;;;;;;;;;;;;;;;;;;5072056;28;19923;-64
2022/11/17 07:13:36;;;;;;;;;;;;;;;;;;5072140;28;20437;-64
2022/11/17 07:16:06;;;;;;;;;;;;;;;;;;5074879;28;20008;-64
2022/11/17 07:18:32;;;;;;;;;;;;;;;;;;5074644;28;19916;-64
2022/11/17 07:21:02;;;;;;;;;;;;;;;;;;5074526;28;20259;-64
2022/11/17 07:23:27;;;;;;;;;;;;;;;;;;5075397;28;19913;-65
2022/11/17 07:25:53;;;;;;;;;;;;;;;;;;5075678;28;19974;-65
2022/11/17 07:28:18;;;;;;;;;;;;;;;;;;5075291;28;20295;-65
2022/11/17 07:30:43;;;;;;;;;;;;;;;;;;5075346;28;19912;-64
2022/11/17 07:33:09;;;;;;;;;;;;;;;;;;5075125;28;19978;-64
2022/11/17 07:35:34;;;;;;;;;;;;;;;;;;5075143;28;19923;-64
2022/11/17 07:38:00;;;;;;;;;;;;;;;;;;5075111;28;20358;-65
2022/11/17 07:40:29;;;;;;;;;;;;;;;;;;5074652;28;19916;-65
2022/11/17 07:42:54;;;;;;;;;;;;;;;;;;5074448;28;19920;-65
2022/11/17 07:45:21;;;;;;;;;;;;;;;;;;5074494;28;19912;-64
2022/11/17 07:47:54;;;;;;;;;;;;;;;;;;5074493;28;20363;-64
2022/11/17 07:50:20;;;;;;;;;;;;;;;;;;5074354;28;20069;-63
2022/11/17 07:52:47;;;;;;;;;;;;;;;;;;5074859;28;19947;-65
2022/11/17 07:55:12;;;;;;;;;;;;;;;;;;5074725;28;19920;-63
2022/11/17 07:57:37;;;;;;;;;;;;;;;;;;5074900;28;19969;-64
2022/11/17 08:00:03;;;;;;;;;;;;;;;;;;5073444;28;19919;-64
2022/11/17 08:02:28;;;;;;;;;;;;;;;;;;5074573;28;20003;-66
2022/11/17 08:04:54;;;;;;;;;;;;;;;;;;5074687;28;19923;-65
2022/11/17 08:07:19;;;;;;;;;;;;;;;;;;5074474;28;19920;-65
2022/11/17 08:09:44;;;;;;;;;;;;;;;;;;5074678;28;19920;-65
2022/11/17 08:12:09;;;;;;;;;;;;;;;;;;5074215;28;19923;-65
2022/11/17 08:14:35;;;;;;;;;;;;;;;;;;5074645;28;19920;-65
2022/11/17 08:17:00;;;;;;;;;;;;;;;;;;5074170;28;20371;-65
2022/11/17 08:19:26;;;;;;;;;;;;;;;;;;5074219;28;19913;-64
2022/11/17 08:21:51;;;;;;;;;;;;;;;;;;5072741;28;19917;-63
2022/11/17 08:24:17;;;;;;;;;;;;;;;;;;5074321;28;19992;-66
2022/11/17 08:26:42;;;;;;;;;;;;;;;;;;5073478;28;19920;-65
2022/11/17 08:29:07;;;;;;;;;;;;;;;;;;5074195;28;19912;-64
2022/11/17 08:31:33;;;;;;;;;;;;;;;;;;5072474;28;20486;-65
2022/11/17 08:33:58;;;;;;;;;;;;;;;;;;5071373;28;19961;-64
2022/11/17 08:36:23;;;;;;;;;;;;;;;;;;5072935;28;19927;-63
2022/11/17 08:38:49;;;;;;;;;;;;;;;;;;5072909;28;19916;-63
2022/11/17 08:41:14;;;;;;;;;;;;;;;;;;5065195;28;19928;-64
2022/11/17 08:43:40;;;;;;;;;;;;;;;;;;5057982;28;19913;-64
2022/11/17 08:46:09;;;;;;;;;;;;;;;;;;5070131;28;19912;-65
2022/11/17 08:48:34;;;;;;;;;;;;;;;;;;5070279;28;20544;-64
2022/11/17 08:51:04;;;;;;;;;;;;;;;;;;5070674;28;20035;-64
2022/11/17 08:53:30;;;;;;;;;;;;;;;;;;5068645;28;20006;-63
2022/11/17 08:55:56;;;;;;;;;;;;;;;;;;5068893;28;19919;-63
2022/11/17 08:58:21;;;;;;;;;;;;;;;;;;5069035;28;19913;-64
2022/11/17 09:00:46;;;;;;;;;;;;;;;;;;5069772;28;19960;-63
2022/11/17 09:03:12;;;;;;;;;;;;;;;;;;5069133;28;19916;-65
2022/11/17 09:05:42;;;;;;;;;;;;;;;;;;5070411;28;19913;-65
2022/11/17 09:08:07;;;;;;;;;;;;;;;;;;5068519;28;19912;-64
2022/11/17 09:10:35;;;;;;;;;;;;;;;;;;5070363;28;20341;-64
2022/11/17 09:13:00;;;;;;;;;;;;;;;;;;5069806;28;19962;-64
2022/11/17 09:15:25;;;;;;;;;;;;;;;;;;5069573;28;20371;-64
2022/11/17 09:17:51;;;;;;;;;;;;;;;;;;5069535;28;20294;-64
2022/11/17 09:20:17;;;;;;;;;;;;;;;;;;5068061;28;19990;-67
2022/11/17 09:22:42;;;;;;;;;;;;;;;;;;5069207;28;19927;-63
2022/11/17 09:25:08;;;;;;;;;;;;;;;;;;5070256;28;19971;-65
2022/11/17 09:27:33;;;;;;;;;;;;;;;;;;5069115;28;19913;-64
2022/11/17 09:29:59;;;;;;;;;;;;;;;;;;5069203;28;20785;-65
2022/11/17 09:32:25;;;;;;;;;;;;;;;;;;5068455;28;20260;-67
2022/11/17 09:34:50;;;;;;;;;;;;;;;;;;5069657;28;19919;-66
2022/11/17 09:37:16;;;;;;;;;;;;;;;;;;5067994;28;19913;-67
2022/11/17 09:39:41;;;;;;;;;;;;;;;;;;5069496;28;19916;-64
2022/11/17 09:42:11;;;;;;;;;;;;;;;;;;5069300;28;20340;-67
2022/11/17 09:44:40;;;;;;;;;;;;;;;;;;5069869;28;19930;-67
2022/11/17 09:47:24;;;;;;;;;;;;;;;;;;5068923;28;20402;-67
2022/11/17 09:49:49;;;;;;;;;;;;;;;;;;5069453;28;19922;-64
2022/11/17 09:52:41;;;;;;;;;;;;;;;;;;5066887;28;20294;-64
2022/11/17 09:55:25;;;;;;;;;;;;;;;;;;5062097;28;19940;-67
2022/11/17 09:58:02;;;;;;;;;;;;;;;;;;5069280;28;20322;-66
2022/11/17 10:00:30;;;;;;;;;;;;;;;;;;5069081;28;20497;-64
2022/11/17 10:02:55;;;;;;;;;;;;;;;;;;5068541;28;19908;-64
2022/11/17 10:05:31;;;;;;;;;;;;;;;;;;5069601;28;20385;-64
2022/11/17 10:08:09;;;;;;;;;;;;;;;;;;5069678;28;19914;-67
2022/11/17 10:10:35;;;;;;;;;;;;;;;;;;5070274;28;19919;-68
2022/11/17 10:13:01;;;;;;;;;;;;;;;;;;5068954;28;19916;-65
2022/11/17 10:15:36;;;;;;;;;;;;;;;;;;5069022;28;19912;-63
2022/11/17 10:18:02;;;;;;;;;;;;;;;;;;5068058;28;19932;-64
2022/11/17 10:20:27;;;;;;;;;;;;;;;;;;5069108;28;20262;-64
2022/11/17 10:22:53;;;;;;;;;;;;;;;;;;5068140;28;19908;-65
2022/11/17 10:25:35;;;;;;;;;;;;;;;;;;5068218;28;19927;-65
2022/11/17 10:28:01;;;;;;;;;;;;;;;;;;5068313;28;19977;-64
2022/11/17 10:30:26;;;;;;;;;;;;;;;;;;5068624;28;20318;-66
2022/11/17 10:32:53;;;;;;;;;;;;;;;;;;5068743;28;19936;-63
2022/11/17 10:35:20;;;;;;;;;;;;;;;;;;5068819;28;19920;-63
2022/11/17 10:38:05;;;;;;;;;;;;;;;;;;5068300;28;19912;-64
2022/11/17 10:40:37;;;;;;;;;;;;;;;;;;5069835;28;19916;-65
2022/11/17 10:43:11;;;;;;;;;;;;;;;;;;5067896;28;19916;-63
2022/11/17 10:45:47;;;;;;;;;;;;;;;;;;5069593;28;19999;-67
2022/11/17 10:48:24;;;;;;;;;;;;;;;;;;5068242;28;19931;-64
2022/11/17 10:50:54;;;;;;;;;;;;;;;;;;5071810;28;19924;-67
2022/11/17 10:53:30;;;;;;;;;;;;;;;;;;5072376;28;19940;-63
2022/11/17 10:55:58;;;;;;;;;;;;;;;;;;5072747;28;20011;-64
2022/11/17 10:58:28;;;;;;;;;;;;;;;;;;5071736;28;19936;-64
2022/11/17 11:00:58;;;;;;;;;;;;;;;;;;5071785;28;19913;-64
2022/11/17 11:03:25;;;;;;;;;;;;;;;;;;5072075;28;20017;-65
2022/11/17 11:05:57;;;;;;;;;;;;;;;;;;5072315;28;19977;-64
2022/11/17 11:08:24;;;;;;;;;;;;;;;;;;5072229;28;19964;-64
2022/11/17 11:10:51;;;;;;;;;;;;;;;;;;5071301;28;19912;-64
2022/11/17 11:13:20;;;;;;;;;;;;;;;;;;5072187;28;19963;-64
2022/11/17 11:15:46;;;;;;;;;;;;;;;;;;5071343;28;19912;-63
2022/11/17 11:18:12;;;;;;;;;;;;;;;;;;5072040;28;19920;-65
2022/11/17 11:20:46;;;;;;;;;;;;;;;;;;5072477;28;19920;-64
2022/11/17 11:23:34;;;;;;;;;;;;;;;;;;5071285;28;19924;-64
2022/11/17 11:26:10;;;;;;;;;;;;;;;;;;5029147;28;20390;-65
2022/11/17 11:28:44;;;;;;;;;;;;;;;;;;5030287;28;19959;-63
2022/11/17 11:31:24;;;;;;;;;;;;;;;;;;5029226;28;20246;-65
2022/11/17 11:33:53;;;;;;;;;;;;;;;;;;5030302;28;19928;-64
2022/11/17 11:36:21;;;;;;;;;;;;;;;;;;5013990;28;19917;-64
2022/11/17 11:38:49;;;;;;;;;;;;;;;;;;5029243;28;19913;-64
2022/11/17 11:41:18;;;;;;;;;;;;;;;;;;5029154;28;20144;-63
2022/11/17 11:43:47;;;;;;;;;;;;;;;;;;5028745;28;19913;-63
2022/11/17 11:46:16;;;;;;;;;;;;;;;;;;5029338;28;19991;-64
2022/11/17 11:48:41;;;;;;;;;;;;;;;;;;5029291;28;19921;-65
2022/11/17 11:51:09;;;;;;;;;;;;;;;;;;5029222;28;19919;-63
2022/11/17 11:53:44;;;;;;;;;;;;;;;;;;5027827;28;19917;-64
2022/11/17 11:56:15;;;;;;;;;;;;;;;;;;5027910;28;20543;-66
2022/11/17 11:58:46;;;;;;;;;;;;;;;;;;5029439;28;19913;-64
2022/11/17 12:01:13;;;;;;;;;;;;;;;;;;5026330;28;19916;-64
2022/11/17 12:03:41;;;;;;;;;;;;;;;;;;5061148;28;19908;-63
2022/11/17 12:09:13;;;;;;;;;;;;;;;;;;5071241;28;19908;-64
2022/11/17 12:14:23;;;;;;;;;;;;;;;;;;5071842;28;19935;-64
2022/11/17 12:16:49;;;;;;;;;;;;;;;;;;5071450;28;19916;-67
2022/11/17 12:19:33;;;;;;;;;;;;;;;;;;5070933;28;20009;-65
2022/11/17 12:21:58;;;;;;;;;;;;;;;;;;5070678;28;19920;-66
2022/11/17 12:24:33;;;;;;;;;;;;;;;;;;5070411;28;19927;-67
2022/11/17 12:27:16;;;;;;;;;;;;;;;;;;5070432;28;20007;-63
2022/11/17 12:29:45;;;;;;;;;;;;;;;;;;5069126;28;19916;-63
2022/11/17 12:32:30;;;;;;;;;;;;;;;;;;5069880;28;19917;-64
2022/11/17 12:35:15;;;;;;;;;;;;;;;;;;5070013;28;20042;-67
2022/11/17 12:37:40;;;;;;;;;;;;;;;;;;5070212;28;19920;-65
2022/11/17 12:40:07;;;;;;;;;;;;;;;;;;5069523;28;20429;-64
2022/11/17 12:42:33;;;;;;;;;;;;;;;;;;5069809;28;19913;-63
2022/11/17 12:45:06;;;;;;;;;;;;;;;;;;5069085;28;19920;-64
2022/11/17 12:47:45;;;;;;;;;;;;;;;;;;5069418;28;20426;-66
2022/11/17 12:50:16;;;;;;;;;;;;;;;;;;5070366;28;20362;-65
2022/11/17 12:52:50;;;;;;;;;;;;;;;;;;5069679;28;19998;-64
2022/11/17 12:55:30;;;;;;;;;;;;;;;;;;5068979;28;19912;-64
2022/11/17 12:58:02;;;;;;;;;;;;;;;;;;5069312;28;19919;-65
2022/11/17 13:00:29;;;;;;;;;;;;;;;;;;5068870;28;19999;-67
2022/11/17 13:03:07;;;;;;;;;;;;;;;;;;5068645;28;19923;-67
2022/11/17 13:05:33;;;;;;;;;;;;;;;;;;5069074;28;19958;-68
2022/11/17 13:08:13;;;;;;;;;;;;;;;;;;5068093;28;19960;-64
2022/11/17 13:10:39;;;;;;;;;;;;;;;;;;5069455;28;20004;-64
2022/11/17 13:13:08;;;;;;;;;;;;;;;;;;5068949;28;20003;-67
2022/11/17 13:15:33;;;;;;;;;;;;;;;;;;5069765;28;19919;-68
2022/11/17 13:17:58;;;;;;;;;;;;;;;;;;5068871;28;19917;-67
2022/11/17 13:20:28;;;;;;;;;;;;;;;;;;5070032;28;19954;-66
2022/11/17 13:22:59;;;;;;;;;;;;;;;;;;5069799;28;20005;-66
2022/11/17 13:25:25;;;;;;;;;;;;;;;;;;5068384;28;20318;-66
2022/11/17 13:27:50;;;;;;;;;;;;;;;;;;5069046;28;19956;-67
2022/11/17 13:30:21;;;;;;;;;;;;;;;;;;5068765;28;20375;-64
2022/11/17 13:32:47;;;;;;;;;;;;;;;;;;5068540;28;19916;-64
2022/11/17 13:35:21;;;;;;;;;;;;;;;;;;5067304;28;19915;-64
2022/11/17 13:38:22;;;;;;;;;;;;;;;;;;5068139;28;19918;-64
2022/11/17 13:40:49;;;;;;;;;;;;;;;;;;4999498;28;20367;-65
2022/11/17 13:43:21;;;;;;;;;;;;;;;;;;5007069;28;20008;-64
2022/11/17 13:45:47;;;;;;;;;;;;;;;;;;5005958;28;20019;-64
2022/11/17 13:48:32;;;;;;;;;;;;;;;;;;5006686;28;19935;-64
2022/11/17 13:51:16;;;;;;;;;;;;;;;;;;5006613;28;19952;-64
2022/11/17 13:53:43;;;;;;;;;;;;;;;;;;5006292;28;19948;-65
2022/11/17 13:56:24;;;;;;;;;;;;;;;;;;5007093;28;19913;-63
2022/11/17 13:58:50;;;;;;;;;;;;;;;;;;5006834;28;19917;-64
2022/11/17 14:01:21;;;;;;;;;;;;;;;;;;5005046;28;19917;-64
2022/11/17 14:03:46;;;;;;;;;;;;;;;;;;5004904;28;20304;-67
2022/11/17 14:06:12;;;;;;;;;;;;;;;;;;5003499;28;19914;-64
2022/11/17 14:08:38;;;;;;;;;;;;;;;;;;5006060;28;20060;-64
2022/11/17 14:11:06;;;;;;;;;;;;;;;;;;5006251;28;19921;-63
2022/11/17 14:13:36;;;;;;;;;;;;;;;;;;5005032;28;20004;-66
2022/11/17 14:16:02;;;;;;;;;;;;;;;;;;5028123;28;19923;-63
2022/11/17 14:18:37;;;;;;;;;;;;;;;;;;5069022;28;19916;-64
2022/11/17 14:21:04;;;;;;;;;;;;;;;;;;5066840;28;19916;-64
2022/11/17 14:23:30;;;;;;;;;;;;;;;;;;5068014;28;19924;-64
2022/11/17 14:25:55;;;;;;;;;;;;;;;;;;5071593;28;20333;-67
2022/11/17 14:28:24;;;;;;;;;;;;;;;;;;5073145;28;19919;-67
2022/11/17 14:30:50;;;;;;;;;;;;;;;;;;5072710;28;19916;-64
2022/11/17 14:33:15;;;;;;;;;;;;;;;;;;5072507;28;19919;-66
2022/11/17 14:35:41;;;;;;;;;;;;;;;;;;5071657;28;19924;-64
2022/11/17 14:38:08;;;;;;;;;;;;;;;;;;5072059;28;20363;-64
2022/11/17 14:40:34;;;;;;;;;;;;;;;;;;5072859;28;19924;-66
2022/11/17 14:42:59;;;;;;;;;;;;;;;;;;5071790;28;19921;-64
2022/11/17 14:45:24;;;;;;;;;;;;;;;;;;5072455;28;19909;-68
2022/11/17 14:47:50;;;;;;;;;;;;;;;;;;5072440;28;19962;-68
2022/11/17 14:50:16;;;;;;;;;;;;;;;;;;5071801;28;19908;-68
2022/11/17 14:52:42;;;;;;;;;;;;;;;;;;5072900;28;19912;-65
2022/11/17 14:55:11;;;;;;;;;;;;;;;;;;5072579;28;19995;-68
2022/11/17 14:57:37;;;;;;;;;;;;;;;;;;5070694;28;20304;-67
2022/11/17 15:00:03;;;;;;;;;;;;;;;;;;5070889;28;19931;-67
2022/11/17 15:02:28;;;;;;;;;;;;;;;;;;5071549;28;19928;-63
2022/11/17 15:04:54;;;;;;;;;;;;;;;;;;5070603;28;19924;-65
2022/11/17 15:07:19;;;;;;;;;;;;;;;;;;5070821;28;19916;-66
2022/11/17 15:09:44;;;;;;;;;;;;;;;;;;5070040;28;19965;-66
2022/11/17 15:12:10;;;;;;;;;;;;;;;;;;5071181;28;20391;-64
2022/11/17 15:14:35;;;;;;;;;;;;;;;;;;5071950;28;20381;-64
2022/11/17 15:17:00;;;;;;;;;;;;;;;;;;5071217;28;20070;-69
2022/11/17 15:19:26;;;;;;;;;;;;;;;;;;5071284;28;19916;-68
2022/11/17 15:21:51;;;;;;;;;;;;;;;;;;5071053;28;19916;-66
2022/11/17 15:24:17;;;;;;;;;;;;;;;;;;5070370;28;19920;-64
2022/11/17 15:26:43;;;;;;;;;;;;;;;;;;5071414;28;19912;-66
2022/11/17 15:29:12;;;;;;;;;;;;;;;;;;5070776;28;20019;-64
2022/11/17 15:31:37;;;;;;;;;;;;;;;;;;5069879;28;20390;-66
2022/11/17 15:34:03;;;;;;;;;;;;;;;;;;5071843;28;19913;-67
2022/11/17 15:36:30;;;;;;;;;;;;;;;;;;5070235;28;21309;-65
2022/11/17 15:38:56;;;;;;;;;;;;;;;;;;5071987;28;19951;-66
2022/11/17 15:41:21;;;;;;;;;;;;;;;;;;5070720;28;19963;-69
2022/11/17 15:43:46;;;;;;;;;;;;;;;;;;5071540;28;19912;-67
2022/11/17 15:46:13;;;;;;;;;;;;;;;;;;5070961;28;19908;-68
2022/11/17 15:48:42;;;;;;;;;;;;;;;;;;5071716;28;19919;-67
2022/11/17 15:51:11;;;;;;;;;;;;;;;;;;5070527;28;19912;-64
2022/11/17 15:53:37;;;;;;;;;;;;;;;;;;5072004;28;19999;-64
2022/11/17 15:56:03;;;;;;;;;;;;;;;;;;5070872;28;19999;-64
2022/11/17 15:58:28;;;;;;;;;;;;;;;;;;5070700;28;19927;-67
2022/11/17 16:00:53;;;;;;;;;;;;;;;;;;5070209;28;20375;-64
2022/11/17 16:03:19;;;;;;;;;;;;;;;;;;5069816;28;20334;-64
2022/11/17 16:05:44;;;;;;;;;;;;;;;;;;5071796;28;20363;-64
2022/11/17 16:08:09;;;;;;;;;;;;;;;;;;5071178;28;19916;-65
2022/11/17 16:10:35;;;;;;;;;;;;;;;;;;5071523;28;19947;-64
2022/11/17 16:13:00;;;;;;;;;;;;;;;;;;5069714;28;19920;-64
2022/11/17 16:15:25;;;;;;;;;;;;;;;;;;5071570;28;20082;-63
2022/11/17 16:17:51;;;;;;;;;;;;;;;;;;5074254;28;20407;-64
2022/11/17 16:20:17;;;;;;;;;;;;;;;;;;5074285;28;19912;-63
2022/11/17 16:22:42;;;;;;;;;;;;;;;;;;5074642;28;19912;-65
2022/11/17 16:25:09;;;;;;;;;;;;;;;;;;5074472;28;19952;-65
2022/11/17 16:27:34;;;;;;;;;;;;;;;;;;5073217;28;19966;-65
2022/11/17 16:29:59;;;;;;;;;;;;;;;;;;5074535;28;20359;-64
2022/11/17 16:32:25;;;;;;;;;;;;;;;;;;5073963;28;20205;-65
2022/11/17 16:34:50;;;;;;;;;;;;;;;;;;5074515;28;20329;-64
2022/11/17 16:37:16;;;;;;;;;;;;;;;;;;5074182;28;19919;-65
2022/11/17 16:39:41;;;;;;;;;;;;;;;;;;5074216;28;20748;-65
2022/11/17 16:42:06;;;;;;;;;;;;;;;;;;5074314;28;20009;-66
2022/11/17 16:44:32;;;;;;;;;;;;;;;;;;5073984;28;19991;-65
2022/11/17 16:46:57;;;;;;;;;;;;;;;;;;5073152;28;19920;-66
2022/11/17 16:49:22;;;;;;;;;;;;;;;;;;5073618;28;19912;-66
2022/11/17 16:51:49;;;;;;;;;;;;;;;;;;5074072;28;20410;-65
2022/11/17 16:54:15;;;;;;;;;;;;;;;;;;5073954;28;19913;-65
2022/11/17 16:56:40;;;;;;;;;;;;;;;;;;5073876;28;20057;-65
2022/11/17 16:59:06;;;;;;;;;;;;;;;;;;5073918;28;20367;-65
2022/11/17 17:01:33;;;;;;;;;;;;;;;;;;5073529;28;19919;-64
2022/11/17 17:04:03;;;;;;;;;;;;;;;;;;5073676;28;20283;-64
2022/11/17 17:06:29;;;;;;;;;;;;;;;;;;5073585;28;19919;-64
2022/11/17 17:08:55;;;;;;;;;;;;;;;;;;5073675;28;19912;-65
2022/11/17 17:11:21;;;;;;;;;;;;;;;;;;5072082;28;20279;-63
2022/11/17 17:13:46;;;;;;;;;;;;;;;;;;5073676;28;19913;-64
2022/11/17 17:16:14;;;;;;;;;;;;;;;;;;5073404;28;19950;-65
2022/11/17 17:18:40;;;;;;;;;;;;;;;;;;5073251;28;19965;-64
2022/11/17 17:21:06;;;;;;;;;;;;;;;;;;5073345;28;20003;-69
2022/11/17 17:23:32;;;;;;;;;;;;;;;;;;5073431;28;20282;-67
2022/11/17 17:26:07;;;;;;;;;;;;;;;;;;5073420;28;19913;-65